createdAt,value
2023-09-02T00:00:16.453Z,10.30
2023-09-02T00:02:45.327Z,10.30
2023-09-02T00:05:14.070Z,10.40
2023-09-02T00:07:43.977Z,10.40
2023-09-02T00:10:13.432Z,10.50
2023-09-02T00:12:42.151Z,10.50
2023-09-02T00:15:11.455Z,10.50
2023-09-02T00:17:40.247Z,10.60
2023-09-02T00:20:10.379Z,10.60
2023-09-02T00:22:38.991Z,10.50
2023-09-02T00:25:09.832Z,10.50
2023-09-02T00:27:38.522Z,10.50
2023-09-02T00:30:08.790Z,10.50
2023-09-02T00:32:37.597Z,10.60
2023-09-02T00:35:07.244Z,10.50
2023-09-02T00:37:36.032Z,10.50
2023-09-02T00:40:07.682Z,10.50
2023-09-02T00:42:39.325Z,10.50
2023-09-02T00:45:09.076Z,10.50
2023-09-02T00:47:37.847Z,10.50
2023-09-02T00:50:08.028Z,10.50
2023-09-02T00:52:37.513Z,10.50
2023-09-02T00:55:07.166Z,10.50
2023-09-02T00:57:38.083Z,10.50
2023-09-02T01:00:09.264Z,10.60
2023-09-02T01:02:39.668Z,10.70
2023-09-02T01:05:09.439Z,10.80
2023-09-02T01:07:38.740Z,10.80
2023-09-02T01:10:09.196Z,10.90
2023-09-02T01:12:39.075Z,11.00
2023-09-02T01:15:09.128Z,11.00
2023-09-02T01:17:37.671Z,11.10
2023-09-02T01:20:10.451Z,11.10
2023-09-02T01:23:27.035Z,11.10
2023-09-02T01:26:25.668Z,11.10
2023-09-02T01:29:01.521Z,11.10
2023-09-02T01:31:32.550Z,11.10
2023-09-02T01:34:02.881Z,11.00
2023-09-02T01:36:32.326Z,10.90
2023-09-02T01:39:02.981Z,11.00
2023-09-02T01:41:32.937Z,11.00
2023-09-02T01:44:03.537Z,11.00
2023-09-02T01:46:32.087Z,11.00
2023-09-02T01:49:00.895Z,11.00
2023-09-02T01:51:30.067Z,11.00
2023-09-02T01:53:58.930Z,11.00
2023-09-02T01:56:27.603Z,11.00
2023-09-02T01:58:56.408Z,11.00
2023-09-02T02:01:26.582Z,10.90
2023-09-02T02:04:02.885Z,11.00
2023-09-02T02:06:33.457Z,11.00
2023-09-02T02:09:07.311Z,11.00
2023-09-02T02:11:39.032Z,11.00
2023-09-02T02:14:08.710Z,11.00
2023-09-02T02:16:38.775Z,11.00
2023-09-02T02:19:07.397Z,11.00
2023-09-02T02:21:35.929Z,11.10
2023-09-02T02:24:04.722Z,11.00
2023-09-02T02:26:33.223Z,11.00
2023-09-02T02:29:01.789Z,11.00
2023-09-02T02:31:30.322Z,10.90
2023-09-02T02:34:00.440Z,10.80
2023-09-02T02:36:29.064Z,10.80
2023-09-02T02:38:57.796Z,10.80
2023-09-02T02:41:26.418Z,10.70
2023-09-02T02:43:55.137Z,10.70
2023-09-02T02:46:23.818Z,10.60
2023-09-02T02:48:52.541Z,10.60
2023-09-02T02:51:22.543Z,10.60
2023-09-02T02:53:52.478Z,10.60
2023-09-02T02:56:21.549Z,10.50
2023-09-02T02:58:50.279Z,10.60
2023-09-02T03:01:18.961Z,10.60
2023-09-02T03:03:48.407Z,10.60
2023-09-02T03:06:20.023Z,10.60
2023-09-02T03:08:50.082Z,10.60
2023-09-02T03:11:18.814Z,10.60
2023-09-02T03:13:47.509Z,10.60
2023-09-02T03:16:16.072Z,10.60
2023-09-02T03:18:44.625Z,10.60
2023-09-02T03:21:13.135Z,10.70
2023-09-02T03:23:41.634Z,10.70
2023-09-02T03:26:13.361Z,10.70
2023-09-02T03:28:41.887Z,10.70
2023-09-02T03:31:11.313Z,10.70
2023-09-02T03:33:40.493Z,10.70
2023-09-02T03:36:09.384Z,10.70
2023-09-02T03:38:37.882Z,10.70
2023-09-02T03:41:14.262Z,10.70
2023-09-02T03:43:42.750Z,10.70
2023-09-02T03:46:11.283Z,10.60
2023-09-02T03:48:40.041Z,10.60
2023-09-02T03:51:13.788Z,10.60
2023-09-02T03:53:43.119Z,10.60
2023-09-02T03:56:13.416Z,10.60
2023-09-02T03:58:43.408Z,10.60
2023-09-02T04:01:13.696Z,10.60
2023-09-02T04:03:43.097Z,10.60
2023-09-02T04:06:11.695Z,10.50
2023-09-02T04:08:40.250Z,10.50
2023-09-02T04:11:08.747Z,10.50
2023-09-02T04:13:38.656Z,10.50
2023-09-02T04:16:07.181Z,10.40
2023-09-02T04:18:35.735Z,10.40
2023-09-02T04:21:05.431Z,10.40
2023-09-02T04:23:34.123Z,10.30
2023-09-02T04:26:03.335Z,10.30
2023-09-02T04:28:31.969Z,10.30
2023-09-02T04:31:02.086Z,10.20
2023-09-02T04:33:30.684Z,10.30
2023-09-02T04:35:59.475Z,10.30
2023-09-02T04:38:28.199Z,10.20
2023-09-02T04:40:56.755Z,10.20
2023-09-02T04:43:25.673Z,10.10
2023-09-02T04:45:54.257Z,10.10
2023-09-02T04:48:24.373Z,10.10
2023-09-02T04:50:56.032Z,10.10
2023-09-02T04:53:25.400Z,10.00
2023-09-02T04:55:54.032Z,10.00
2023-09-02T04:58:24.632Z,9.90
2023-09-02T05:00:54.039Z,10.00
2023-09-02T05:03:24.003Z,9.90
2023-09-02T05:05:52.487Z,9.90
2023-09-02T05:08:20.997Z,9.80
2023-09-02T05:10:49.494Z,9.80
2023-09-02T05:13:18.302Z,9.70
2023-09-02T05:15:47.234Z,9.70
2023-09-02T05:18:16.708Z,9.60
2023-09-02T05:20:48.737Z,9.50
2023-09-02T05:23:17.745Z,9.50
2023-09-02T05:25:46.381Z,9.50
2023-09-02T05:28:14.890Z,9.50
2023-09-02T05:30:43.384Z,9.50
2023-09-02T05:33:11.882Z,9.50
2023-09-02T05:35:40.353Z,9.50
2023-09-02T05:38:10.697Z,9.50
2023-09-02T05:40:43.306Z,9.60
2023-09-02T05:43:12.133Z,9.60
2023-09-02T05:45:40.784Z,9.60
2023-09-02T05:48:10.102Z,9.60
2023-09-02T05:50:38.832Z,9.60
2023-09-02T05:53:07.330Z,9.60
2023-09-02T05:55:37.201Z,9.50
2023-09-02T05:58:05.946Z,9.50
2023-09-02T06:00:36.506Z,9.50
2023-09-02T06:03:05.796Z,9.60
2023-09-02T06:05:34.383Z,9.50
2023-09-02T06:08:02.943Z,9.50
2023-09-02T06:10:34.370Z,9.50
2023-09-02T06:13:04.721Z,9.50
2023-09-02T06:15:33.223Z,9.40
2023-09-02T06:18:02.875Z,9.40
2023-09-02T06:20:31.578Z,9.40
2023-09-02T06:23:00.145Z,9.50
2023-09-02T06:25:28.609Z,9.50
2023-09-02T06:27:57.094Z,9.60
2023-09-02T06:30:26.935Z,9.60
2023-09-02T06:32:55.449Z,9.60
2023-09-02T06:35:24.070Z,9.70
2023-09-02T06:37:52.589Z,9.80
2023-09-02T06:40:21.143Z,9.80
2023-09-02T06:42:49.636Z,9.90
2023-09-02T06:45:18.311Z,9.90
2023-09-02T06:47:48.185Z,9.90
2023-09-02T06:50:16.897Z,9.90
2023-09-02T06:52:45.377Z,10.00
2023-09-02T06:55:14.098Z,10.00
2023-09-02T06:57:45.048Z,10.20
2023-09-02T07:00:15.181Z,10.30
2023-09-02T07:02:43.782Z,10.40
2023-09-02T07:05:13.715Z,10.50
2023-09-02T07:07:42.211Z,10.60
2023-09-02T07:10:12.450Z,10.80
2023-09-02T07:12:40.918Z,11.00
2023-09-02T07:15:11.544Z,11.20
2023-09-02T07:17:40.050Z,11.30
2023-09-02T07:20:10.552Z,11.40
2023-09-02T07:22:40.706Z,11.50
2023-09-02T07:25:10.284Z,11.60
2023-09-02T07:27:38.770Z,11.70
2023-09-02T07:30:09.149Z,11.80
2023-09-02T07:32:37.784Z,11.80
2023-09-02T07:35:07.455Z,11.90
2023-09-02T07:37:36.012Z,11.90
2023-09-02T07:40:07.818Z,12.00
2023-09-02T07:42:36.573Z,12.00
2023-09-02T07:45:05.550Z,12.10
2023-09-02T07:47:34.077Z,12.30
2023-09-02T07:50:02.586Z,12.40
2023-09-02T07:52:31.979Z,12.50
2023-09-02T07:55:00.778Z,12.60
2023-09-02T07:57:32.049Z,12.70
2023-09-02T08:00:00.636Z,12.80
2023-09-02T08:02:29.235Z,13.00
2023-09-02T08:04:57.800Z,13.10
2023-09-02T08:07:26.298Z,13.20
2023-09-02T08:09:54.794Z,13.40
2023-09-02T08:12:23.276Z,13.50
2023-09-02T08:14:53.133Z,13.70
2023-09-02T08:17:21.778Z,13.80
2023-09-02T08:19:50.524Z,14.00
2023-09-02T08:22:19.987Z,14.40
2023-09-02T08:24:48.534Z,15.00
2023-09-02T08:27:17.035Z,15.60
2023-09-02T08:29:45.525Z,16.20
2023-09-02T08:32:15.604Z,16.90
2023-09-02T08:34:44.130Z,17.40
2023-09-02T08:37:12.613Z,17.80
2023-09-02T08:39:41.430Z,18.30
2023-09-02T08:42:12.787Z,18.60
2023-09-02T08:44:42.268Z,18.80
2023-09-02T08:47:11.039Z,18.90
2023-09-02T08:49:41.116Z,18.80
2023-09-02T08:52:10.032Z,19.00
2023-09-02T08:54:40.196Z,19.10
2023-09-02T08:57:09.183Z,19.20
2023-09-02T08:59:37.942Z,19.40
2023-09-02T09:02:07.776Z,19.50
2023-09-02T09:04:37.475Z,19.80
2023-09-02T09:07:08.632Z,19.90
2023-09-02T09:09:40.874Z,19.90
2023-09-02T09:12:10.067Z,19.90
2023-09-02T09:14:39.990Z,19.80
2023-09-02T09:17:09.968Z,19.70
2023-09-02T09:19:38.731Z,20.10
2023-09-02T09:22:08.611Z,20.20
2023-09-02T09:24:37.097Z,20.30
2023-09-02T09:27:07.816Z,20.40
2023-09-02T09:29:46.591Z,20.40
2023-09-02T09:32:19.445Z,20.80
2023-09-02T09:34:49.379Z,20.80
2023-09-02T09:37:19.408Z,20.70
2023-09-02T09:39:52.618Z,20.70
2023-09-02T09:42:36.896Z,21.20
2023-09-02T09:45:08.027Z,21.20
2023-09-02T09:47:36.615Z,21.50
2023-09-02T09:50:16.504Z,21.80
2023-09-02T09:53:02.788Z,22.60
2023-09-02T09:55:32.225Z,22.60
2023-09-02T09:58:01.568Z,22.70
2023-09-02T10:00:32.065Z,22.80
2023-09-02T10:03:02.226Z,22.90
2023-09-02T10:05:33.136Z,23.40
2023-09-02T10:08:06.054Z,23.50
2023-09-02T10:10:37.386Z,23.70
2023-09-02T10:13:07.178Z,23.80
2023-09-02T10:15:36.003Z,23.80
2023-09-02T10:18:06.235Z,24.00
2023-09-02T10:20:36.997Z,24.00
2023-09-02T10:23:09.759Z,24.10
2023-09-02T10:25:47.623Z,24.00
2023-09-02T10:28:23.464Z,24.10
2023-09-02T10:30:54.244Z,24.30
2023-09-02T10:33:32.935Z,24.30
2023-09-02T10:36:07.796Z,24.30
2023-09-02T10:38:45.448Z,24.40
2023-09-02T10:41:15.560Z,24.50
2023-09-02T10:43:46.553Z,24.70
2023-09-02T10:46:15.175Z,24.80
2023-09-02T10:48:47.581Z,24.80
2023-09-02T10:51:17.357Z,24.80
2023-09-02T10:54:08.609Z,24.80
2023-09-02T10:56:38.545Z,24.90
2023-09-02T10:59:08.845Z,24.90
2023-09-02T11:01:48.352Z,24.80
2023-09-02T11:04:54.957Z,24.80
2023-09-02T11:07:30.269Z,24.90
2023-09-02T11:10:00.843Z,25.00
2023-09-02T11:12:30.140Z,25.10
2023-09-02T11:15:19.498Z,25.10
2023-09-02T11:17:48.247Z,25.20
2023-09-02T11:20:20.279Z,25.30
2023-09-02T11:22:55.806Z,25.20
2023-09-02T11:25:31.547Z,24.70
2023-09-02T11:28:06.033Z,24.20
2023-09-02T11:30:38.109Z,23.90
2023-09-02T11:33:08.065Z,23.90
2023-09-02T11:35:38.583Z,24.40
2023-09-02T11:38:21.132Z,24.80
2023-09-02T11:40:51.214Z,25.20
2023-09-02T11:43:22.718Z,25.40
2023-09-02T11:45:51.718Z,25.30
2023-09-02T11:48:20.297Z,24.90
2023-09-02T11:50:49.048Z,24.80
2023-09-02T11:53:17.820Z,24.90
2023-09-02T11:55:46.823Z,25.10
2023-09-02T11:58:20.161Z,25.30
2023-09-02T12:00:48.764Z,25.30
2023-09-02T12:03:24.598Z,24.90
2023-09-02T12:05:56.686Z,24.30
2023-09-02T12:08:25.447Z,24.10
2023-09-02T12:10:55.070Z,24.10
2023-09-02T12:13:25.156Z,24.00
2023-09-02T12:15:53.810Z,23.80
2023-09-02T12:18:23.940Z,23.80
2023-09-02T12:20:52.889Z,24.10
2023-09-02T12:23:21.728Z,24.60
2023-09-02T12:26:07.610Z,24.90
2023-09-02T12:28:37.783Z,25.20
2023-09-02T12:31:06.805Z,25.30
2023-09-02T12:33:39.066Z,25.10
2023-09-02T12:36:08.123Z,25.00
2023-09-02T12:38:51.128Z,25.10
2023-09-02T12:41:19.860Z,25.30
2023-09-02T12:43:49.963Z,25.40
2023-09-02T12:46:23.885Z,25.60
2023-09-02T12:48:53.155Z,25.60
2023-09-02T12:51:30.239Z,25.80
2023-09-02T12:54:00.264Z,25.80
2023-09-02T12:56:29.737Z,25.70
2023-09-02T12:58:59.809Z,25.70
2023-09-02T13:01:28.576Z,25.20
2023-09-02T13:03:57.393Z,24.90
2023-09-02T13:06:28.738Z,24.50
2023-09-02T13:08:57.566Z,24.10
2023-09-02T13:11:28.481Z,23.90
2023-09-02T13:13:58.567Z,23.60
2023-09-02T13:16:29.986Z,23.20
2023-09-02T13:18:59.289Z,23.10
2023-09-02T13:21:27.777Z,22.70
2023-09-02T13:23:56.509Z,22.60
2023-09-02T13:26:25.371Z,22.40
2023-09-02T13:28:54.081Z,22.60
2023-09-02T13:31:24.078Z,23.10
2023-09-02T13:33:52.672Z,23.90
2023-09-02T13:36:21.744Z,24.50
2023-09-02T13:38:51.669Z,24.40
2023-09-02T13:41:21.920Z,24.60
2023-09-02T13:43:51.243Z,24.60
2023-09-02T13:46:19.772Z,24.30
2023-09-02T13:48:49.687Z,24.30
2023-09-02T13:51:23.422Z,24.50
2023-09-02T13:53:54.638Z,24.90
2023-09-02T13:56:23.840Z,25.00
2023-09-02T13:58:53.109Z,24.90
2023-09-02T14:01:21.720Z,25.00
2023-09-02T14:03:52.917Z,24.90
2023-09-02T14:06:21.527Z,24.90
2023-09-02T14:08:50.099Z,24.90
2023-09-02T14:11:19.831Z,24.90
2023-09-02T14:13:51.347Z,24.80
2023-09-02T14:16:20.666Z,24.40
2023-09-02T14:18:50.383Z,24.40
2023-09-02T14:21:20.338Z,24.20
2023-09-02T14:23:49.750Z,24.10
2023-09-02T14:26:18.644Z,23.90
2023-09-02T14:28:47.358Z,23.70
2023-09-02T14:31:16.106Z,23.50
2023-09-02T14:33:44.872Z,23.40
2023-09-02T14:36:13.431Z,23.20
2023-09-02T14:38:44.459Z,23.10
2023-09-02T14:41:13.326Z,22.80
2023-09-02T14:43:46.703Z,22.50
2023-09-02T14:46:15.552Z,21.90
2023-09-02T14:48:44.589Z,21.90
2023-09-02T14:51:13.458Z,21.70
2023-09-02T14:53:43.453Z,21.60
2023-09-02T14:56:13.921Z,21.40
2023-09-02T14:58:42.455Z,21.40
2023-09-02T15:01:16.558Z,21.30
2023-09-02T15:03:46.906Z,21.20
2023-09-02T15:06:15.847Z,21.10
2023-09-02T15:08:45.724Z,21.10
2023-09-02T15:11:16.215Z,21.10
2023-09-02T15:13:44.972Z,21.00
2023-09-02T15:16:16.185Z,21.10
2023-09-02T15:18:46.295Z,20.90
2023-09-02T15:21:18.616Z,20.80
2023-09-02T15:23:48.696Z,20.80
2023-09-02T15:26:21.157Z,20.60
2023-09-02T15:28:49.651Z,20.50
2023-09-02T15:31:18.872Z,20.40
2023-09-02T15:33:47.782Z,20.40
2023-09-02T15:36:21.097Z,20.40
2023-09-02T15:38:51.373Z,20.30
2023-09-02T15:41:20.334Z,20.30
2023-09-02T15:43:53.866Z,20.30
2023-09-02T15:46:23.349Z,20.30
2023-09-02T15:48:52.208Z,20.20
2023-09-02T15:51:21.434Z,20.20
2023-09-02T15:53:51.402Z,20.30
2023-09-02T15:56:20.176Z,20.40
2023-09-02T15:58:48.778Z,20.40
2023-09-02T16:01:17.432Z,20.40
2023-09-02T16:03:46.006Z,20.40
2023-09-02T16:06:14.720Z,20.40
2023-09-02T16:08:43.217Z,20.40
2023-09-02T16:11:13.726Z,20.40
2023-09-02T16:13:42.800Z,20.40
2023-09-02T16:16:11.511Z,20.30
2023-09-02T16:18:40.111Z,20.30
2023-09-02T16:21:08.625Z,20.10
2023-09-02T16:23:37.115Z,20.10
2023-09-02T16:26:05.634Z,20.00
2023-09-02T16:28:35.694Z,19.90
2023-09-02T16:31:05.188Z,19.80
2023-09-02T16:33:33.988Z,19.60
2023-09-02T16:36:02.486Z,19.50
2023-09-02T16:38:31.199Z,19.40
2023-09-02T16:41:01.054Z,19.30
2023-09-02T16:43:29.761Z,19.20
2023-09-02T16:46:00.599Z,19.40
2023-09-02T16:48:29.445Z,19.50
2023-09-02T16:50:57.941Z,19.70
2023-09-02T16:53:27.954Z,19.70
2023-09-02T16:56:04.857Z,19.70
2023-09-02T16:58:35.507Z,19.70
2023-09-02T17:01:11.704Z,19.70
2023-09-02T17:03:40.502Z,19.60
2023-09-02T17:06:09.289Z,19.50
2023-09-02T17:08:37.977Z,19.50
2023-09-02T17:11:06.466Z,19.30
2023-09-02T17:13:36.827Z,19.20
2023-09-02T17:16:11.002Z,19.10
2023-09-02T17:18:40.126Z,19.00
2023-09-02T17:21:11.849Z,18.90
2023-09-02T17:23:41.802Z,18.80
2023-09-02T17:26:10.428Z,18.70
2023-09-02T17:28:39.078Z,18.60
2023-09-02T17:31:09.924Z,18.50
2023-09-02T17:33:40.885Z,18.30
2023-09-02T17:36:09.806Z,18.20
2023-09-02T17:38:38.320Z,18.10
2023-09-02T17:41:07.192Z,18.00
2023-09-02T17:43:35.689Z,17.90
2023-09-02T17:46:04.489Z,17.70
2023-09-02T17:48:34.424Z,17.60
2023-09-02T17:51:02.923Z,17.50
2023-09-02T17:53:31.717Z,17.40
2023-09-02T17:56:00.252Z,17.40
2023-09-02T17:58:30.182Z,17.30
2023-09-02T18:00:58.700Z,17.20
2023-09-02T18:03:27.251Z,17.00
2023-09-02T18:05:57.187Z,17.00
2023-09-02T18:08:34.250Z,17.00
2023-09-02T18:11:10.592Z,16.90
2023-09-02T18:13:39.068Z,16.90
2023-09-02T18:16:07.953Z,16.70
2023-09-02T18:18:37.564Z,16.70
2023-09-02T18:21:08.649Z,16.60
2023-09-02T18:23:37.302Z,16.40
2023-09-02T18:26:06.369Z,16.30
2023-09-02T18:28:34.987Z,16.30
2023-09-02T18:31:03.799Z,16.20
2023-09-02T18:33:32.768Z,16.10
2023-09-02T18:36:01.246Z,16.10
2023-09-02T18:38:31.201Z,16.00
2023-09-02T18:40:59.700Z,16.00
2023-09-02T18:43:28.418Z,15.90
2023-09-02T18:45:56.929Z,16.00
2023-09-02T18:48:25.660Z,16.00
2023-09-02T18:50:54.564Z,15.90
2023-09-02T18:53:23.527Z,15.90
2023-09-02T18:55:53.438Z,15.80
2023-09-02T18:58:22.178Z,15.70
2023-09-02T19:00:51.199Z,15.70
2023-09-02T19:03:20.040Z,15.60
2023-09-02T19:05:48.692Z,15.50
2023-09-02T19:08:18.005Z,15.40
2023-09-02T19:10:46.649Z,15.40
2023-09-02T19:13:16.829Z,15.40
2023-09-02T19:15:45.361Z,15.40
2023-09-02T19:18:13.900Z,15.30
2023-09-02T19:20:42.389Z,15.30
2023-09-02T19:23:11.126Z,15.20
2023-09-02T19:25:40.080Z,15.20
2023-09-02T19:28:08.704Z,15.10
2023-09-02T19:30:38.801Z,15.00
2023-09-02T19:33:07.683Z,15.00
2023-09-02T19:35:36.412Z,15.00
2023-09-02T19:38:05.228Z,15.00
2023-09-02T19:40:33.739Z,14.90
2023-09-02T19:43:02.222Z,14.90
2023-09-02T19:45:30.937Z,14.80
2023-09-02T19:48:00.802Z,14.80
2023-09-02T19:50:29.467Z,14.80
2023-09-02T19:52:57.987Z,14.70
2023-09-02T19:55:26.678Z,14.70
2023-09-02T19:57:55.196Z,14.60
2023-09-02T20:00:23.982Z,14.60
2023-09-02T20:02:52.701Z,14.50
2023-09-02T20:05:22.793Z,14.40
2023-09-02T20:07:51.446Z,14.40
2023-09-02T20:10:20.154Z,14.40
2023-09-02T20:12:48.665Z,14.30
2023-09-02T20:15:17.378Z,14.30
2023-09-02T20:17:46.220Z,14.20
2023-09-02T20:20:15.096Z,14.20
2023-09-02T20:22:47.358Z,14.20
2023-09-02T20:25:16.076Z,14.10
2023-09-02T20:27:45.257Z,14.10
2023-09-02T20:30:16.490Z,14.00
2023-09-02T20:32:45.429Z,14.00
2023-09-02T20:35:13.964Z,13.90
2023-09-02T20:37:42.467Z,13.90
2023-09-02T20:40:14.226Z,13.80
2023-09-02T20:42:42.709Z,13.70
2023-09-02T20:45:11.694Z,13.70
2023-09-02T20:47:40.279Z,13.70
2023-09-02T20:50:10.040Z,13.70
2023-09-02T20:52:38.627Z,13.70
2023-09-02T20:55:08.037Z,13.60
2023-09-02T20:57:38.189Z,13.60
2023-09-02T21:00:08.701Z,13.50
2023-09-02T21:02:37.262Z,13.50
2023-09-02T21:05:07.123Z,13.50
2023-09-02T21:07:35.856Z,13.40
2023-09-02T21:10:05.038Z,13.30
2023-09-02T21:12:33.530Z,13.40
2023-09-02T21:15:03.423Z,13.40
2023-09-02T21:17:31.949Z,13.40
2023-09-02T21:20:04.787Z,13.30
2023-09-02T21:22:36.912Z,13.20
2023-09-02T21:25:07.394Z,13.20
2023-09-02T21:27:36.353Z,13.10
2023-09-02T21:30:07.604Z,13.10
2023-09-02T21:32:36.132Z,13.10
2023-09-02T21:35:05.076Z,13.00
2023-09-02T21:37:33.629Z,13.00
2023-09-02T21:40:02.790Z,13.00
2023-09-02T21:42:32.844Z,12.90
2023-09-02T21:45:01.412Z,12.90
2023-09-02T21:47:31.340Z,12.90
2023-09-02T21:50:00.338Z,12.90
2023-09-02T21:52:28.824Z,12.80
2023-09-02T21:54:57.306Z,12.80
2023-09-02T21:57:25.815Z,12.80
2023-09-02T21:59:54.525Z,12.80
2023-09-02T22:02:29.274Z,12.80
2023-09-02T22:04:59.666Z,12.70
2023-09-02T22:07:28.292Z,12.70
2023-09-02T22:09:56.789Z,12.70
2023-09-02T22:12:25.770Z,12.70
2023-09-02T22:14:54.241Z,12.60
2023-09-02T22:17:22.763Z,12.60
2023-09-02T22:19:51.232Z,12.60
2023-09-02T22:22:21.090Z,12.60
2023-09-02T22:24:51.214Z,12.60
2023-09-02T22:27:20.910Z,12.50
2023-09-02T22:29:49.387Z,12.40
2023-09-02T22:32:17.896Z,12.40
2023-09-02T22:34:46.407Z,12.40
2023-09-02T22:37:14.958Z,12.30
2023-09-02T22:39:44.869Z,12.30
2023-09-02T22:42:13.389Z,12.30
2023-09-02T22:44:42.082Z,12.30
2023-09-02T22:47:10.588Z,12.30
2023-09-02T22:49:39.068Z,12.20
2023-09-02T22:52:08.112Z,12.20
2023-09-02T22:54:36.653Z,12.10
2023-09-02T22:57:07.272Z,12.10
2023-09-02T22:59:35.812Z,12.00
2023-09-02T23:02:04.304Z,12.10
2023-09-02T23:04:32.817Z,12.10
2023-09-02T23:07:01.407Z,12.00
2023-09-02T23:09:29.899Z,12.00
2023-09-02T23:11:58.399Z,12.00
2023-09-02T23:14:28.260Z,11.90
2023-09-02T23:16:57.609Z,11.90
2023-09-02T23:19:27.055Z,11.90
2023-09-02T23:21:55.580Z,11.90
2023-09-02T23:24:24.389Z,11.80
2023-09-02T23:26:54.480Z,11.80
2023-09-02T23:29:23.074Z,11.80
2023-09-02T23:31:52.975Z,11.80
2023-09-02T23:34:21.454Z,11.80
2023-09-02T23:36:49.979Z,11.70
2023-09-02T23:39:18.469Z,11.70
2023-09-02T23:41:47.152Z,11.60
2023-09-02T23:44:17.774Z,11.60
2023-09-02T23:46:46.410Z,11.60
2023-09-02T23:49:16.395Z,11.60
2023-09-02T23:51:45.035Z,11.50
2023-09-02T23:54:13.589Z,11.50
2023-09-02T23:56:42.140Z,11.50
2023-09-02T23:59:10.641Z,11.50
